Time;durP1;ratioP1;P1;durP2;ratioP2;P2;SDS_P1;SDS_P2;PMS_P1;PMS_P2;Temp;Humidity;BMP_temperature;BMP_pressure;BME280_temperature;BME280_humidity;BME280_pressure;Samples;Min_cycle;Max_cycle;Signal;HPM_P1;HPM_P2
2023/04/16 00:00:16;;;;;;;10.27;3.75;;;9.50;99.90;;;;;;4967903;28;20027;-69
2023/04/16 00:02:42;;;;;;;7.70;3.97;;;9.50;99.90;;;;;;4970794;28;20022;-69
2023/04/16 00:05:08;;;;;;;9.10;4.15;;;9.50;99.90;;;;;;4969065;28;20096;-69
2023/04/16 00:07:34;;;;;;;7.38;3.63;;;9.50;99.90;;;;;;4970890;28;20026;-69
2023/04/16 00:09:59;;;;;;;6.93;3.03;;;9.50;99.90;;;;;;4968613;28;20506;-69
2023/04/16 00:12:25;;;;;;;7.47;4.30;;;9.50;99.90;;;;;;4971769;28;20553;-69
2023/04/16 00:14:51;;;;;;;11.30;4.10;;;9.50;99.90;;;;;;4968854;28;20045;-69
2023/04/16 00:17:17;;;;;;;7.07;3.58;;;9.50;99.90;;;;;;4971816;28;20019;-69
2023/04/16 00:19:42;;;;;;;10.07;4.80;;;9.40;99.90;;;;;;4968174;28;20062;-70
2023/04/16 00:22:08;;;;;;;7.80;4.30;;;9.40;99.90;;;;;;4971651;28;20026;-69
2023/04/16 00:24:34;;;;;;;9.45;4.10;;;9.40;99.90;;;;;;4968885;28;20034;-69
2023/04/16 00:27:00;;;;;;;9.90;4.13;;;9.40;99.90;;;;;;4971135;28;20027;-69
2023/04/16 00:29:27;;;;;;;8.70;4.00;;;9.40;99.90;;;;;;4970341;28;20031;-69
2023/04/16 00:31:53;;;;;;;5.68;3.30;;;9.40;99.90;;;;;;4968407;28;20491;-70
2023/04/16 00:34:19;;;;;;;13.20;4.25;;;9.40;99.90;;;;;;4970460;28;20056;-69
2023/04/16 00:36:45;;;;;;;7.28;4.03;;;9.30;99.90;;;;;;4967486;28;20034;-69
2023/04/16 00:39:10;;;;;;;8.95;4.65;;;9.40;99.90;;;;;;4971570;28;20062;-69
2023/04/16 00:41:37;;;;;;;10.13;4.00;;;9.40;99.90;;;;;;4968178;28;20035;-69
2023/04/16 00:44:03;;;;;;;6.88;4.35;;;9.40;99.90;;;;;;4971688;28;20027;-70
2023/04/16 00:46:29;;;;;;;8.40;3.92;;;9.40;99.90;;;;;;4968318;28;20037;-69
2023/04/16 00:48:55;;;;;;;9.68;4.13;;;9.40;99.90;;;;;;4971649;28;20026;-69
2023/04/16 00:51:21;;;;;;;9.35;5.00;;;9.30;99.90;;;;;;4966521;28;20030;-69
2023/04/16 00:53:47;;;;;;;8.70;4.05;;;9.30;99.90;;;;;;4971412;28;20499;-69
2023/04/16 00:56:13;;;;;;;11.85;4.68;;;9.30;99.90;;;;;;4967987;28;20027;-70
2023/04/16 00:58:39;;;;;;;7.90;4.38;;;9.30;99.90;;;;;;4982758;28;20059;-69
2023/04/16 01:01:05;;;;;;;7.40;3.88;;;9.30;99.90;;;;;;4967442;28;20038;-69
2023/04/16 01:03:46;;;;;;;8.50;5.03;;;9.30;99.90;;;;;;4981343;28;20030;-70
2023/04/16 01:06:13;;;;;;;9.68;4.90;;;9.30;99.90;;;;;;4962325;28;20561;-70
2023/04/16 01:08:39;;;;;;;11.63;4.68;;;9.30;99.90;;;;;;4970864;28;20042;-69
2023/04/16 01:11:05;;;;;;;9.93;4.40;;;9.30;99.90;;;;;;4974035;28;20023;-70
2023/04/16 01:13:32;;;;;;;8.00;3.90;;;9.30;99.90;;;;;;4970136;28;20039;-69
2023/04/16 01:15:59;;;;;;;10.02;4.65;;;9.30;99.90;;;;;;4969483;28;20039;-70
2023/04/16 01:18:25;;;;;;;10.52;5.10;;;9.30;99.90;;;;;;4980865;28;20177;-69
2023/04/16 01:20:51;;;;;;;11.10;4.47;;;9.40;99.90;;;;;;4966925;28;20415;-69
2023/04/16 01:23:18;;;;;;;7.65;3.47;;;9.30;99.90;;;;;;4971260;28;20031;-69
2023/04/16 01:25:45;;;;;;;10.50;4.85;;;9.30;99.90;;;;;;4955080;28;20042;-70
2023/04/16 01:28:11;;;;;;;8.32;4.25;;;9.30;99.90;;;;;;4969959;28;20027;-70
2023/04/16 01:30:37;;;;;;;9.23;4.88;;;9.30;99.90;;;;;;4969932;28;20045;-69
2023/04/16 01:33:03;;;;;;;8.02;3.95;;;9.30;99.90;;;;;;4971097;28;20035;-70
2023/04/16 01:35:29;;;;;;;8.23;4.10;;;9.30;99.90;;;;;;4972647;28;20031;-70
2023/04/16 01:37:55;;;;;;;10.98;4.90;;;9.30;99.90;;;;;;4973818;28;20042;-69
2023/04/16 01:40:21;;;;;;;8.30;4.20;;;9.20;99.90;;;;;;4970555;28;20097;-69
2023/04/16 01:42:46;;;;;;;9.40;4.10;;;9.20;99.90;;;;;;4974810;28;20721;-69
2023/04/16 01:45:12;;;;;;;7.53;4.65;;;9.20;99.90;;;;;;4971165;28;20035;-70
2023/04/16 01:47:38;;;;;;;8.27;4.03;;;9.20;99.90;;;;;;4974599;28;20037;-69
2023/04/16 01:50:05;;;;;;;12.77;4.70;;;9.10;99.90;;;;;;4970224;28;20479;-69
2023/04/16 01:52:31;;;;;;;8.25;3.83;;;9.10;99.90;;;;;;4974425;28;20027;-69
2023/04/16 01:54:56;;;;;;;11.40;4.47;;;9.10;99.90;;;;;;4969845;28;20031;-69
2023/04/16 01:57:22;;;;;;;10.95;4.82;;;9.10;99.90;;;;;;4974694;28;20081;-69
2023/04/16 01:59:48;;;;;;;9.00;4.82;;;9.10;99.90;;;;;;4970806;28;20448;-69
2023/04/16 02:02:15;;;;;;;10.18;4.13;;;9.10;99.90;;;;;;4974680;28;20030;-70
2023/04/16 02:04:44;;;;;;;10.40;5.18;;;9.10;99.90;;;;;;4971222;28;20087;-69
2023/04/16 02:07:10;;;;;;;12.55;5.75;;;9.10;99.90;;;;;;4965666;28;20074;-69
2023/04/16 02:09:40;;;;;;;13.15;5.82;;;9.10;99.90;;;;;;4970020;28;20027;-69
2023/04/16 02:12:06;;;;;;;9.82;4.80;;;9.10;99.90;;;;;;4972573;28;20034;-69
2023/04/16 02:14:32;;;;;;;9.40;4.60;;;9.10;99.90;;;;;;4970560;28;20042;-70
2023/04/16 02:16:59;;;;;;;12.75;5.40;;;9.10;99.90;;;;;;4973027;28;20062;-70
2023/04/16 02:19:25;;;;;;;10.20;5.80;;;9.20;99.90;;;;;;4973313;28;20077;-69
2023/04/16 02:21:52;;;;;;;9.70;4.60;;;9.20;99.90;;;;;;4974443;28;20034;-69
2023/04/16 02:24:19;;;;;;;12.10;4.60;;;9.20;99.90;;;;;;4973719;28;20030;-69
2023/04/16 02:26:44;;;;;;;7.10;3.95;;;9.20;99.90;;;;;;4971096;28;20379;-69
2023/04/16 02:29:10;;;;;;;9.18;4.82;;;9.20;99.90;;;;;;4972532;28;20034;-69
2023/04/16 02:31:37;;;;;;;9.63;5.32;;;9.20;99.90;;;;;;4968969;28;20043;-69
2023/04/16 02:34:04;;;;;;;16.50;5.75;;;9.20;99.90;;;;;;4988209;28;20169;-69
2023/04/16 02:36:30;;;;;;;10.30;4.85;;;9.10;99.90;;;;;;4970501;28;20023;-70
2023/04/16 02:38:57;;;;;;;9.30;5.47;;;9.20;99.90;;;;;;4971479;28;20027;-69
2023/04/16 02:41:23;;;;;;;12.05;5.53;;;9.20;99.90;;;;;;4969679;28;20153;-69
2023/04/16 02:43:49;;;;;;;12.55;5.68;;;9.20;99.90;;;;;;4974050;28;20490;-69
2023/04/16 02:46:15;;;;;;;10.63;5.40;;;9.20;99.90;;;;;;4968172;28;20046;-69
2023/04/16 02:48:40;;;;;;;14.48;6.05;;;9.20;99.90;;;;;;4985399;28;20034;-69
2023/04/16 02:51:06;;;;;;;10.07;5.82;;;9.20;99.90;;;;;;4968713;28;20085;-69
2023/04/16 02:53:32;;;;;;;12.30;5.50;;;9.20;99.90;;;;;;4973878;28;20127;-70
2023/04/16 02:55:58;;;;;;;9.88;5.25;;;9.20;99.90;;;;;;4970179;28;20039;-69
2023/04/16 02:58:25;;;;;;;10.02;5.28;;;9.20;99.90;;;;;;4973809;28;20039;-69
2023/04/16 03:00:53;;;;;;;11.05;5.85;;;9.10;99.90;;;;;;4968478;28;20521;-69
2023/04/16 03:03:20;;;;;;;12.43;5.88;;;9.20;99.90;;;;;;4981807;28;20041;-69
2023/04/16 03:05:46;;;;;;;11.18;5.20;;;9.20;99.90;;;;;;4969799;28;20515;-70
2023/04/16 03:08:12;;;;;;;14.52;5.88;;;9.20;99.90;;;;;;4981102;28;20455;-69
2023/04/16 03:10:38;;;;;;;13.77;6.47;;;9.20;99.90;;;;;;4984559;28;20035;-70
2023/04/16 03:13:04;;;;;;;12.88;5.50;;;9.20;99.90;;;;;;4983623;23;20047;-65
2023/04/16 03:15:30;;;;;;;10.70;4.85;;;9.20;99.90;;;;;;4972322;28;20037;-65
2023/04/16 03:17:57;;;;;;;13.57;6.18;;;9.20;99.90;;;;;;4970003;28;20047;-67
2023/04/16 03:20:23;;;;;;;15.52;6.00;;;9.20;99.90;;;;;;4972996;28;20035;-65
2023/04/16 03:22:51;;;;;;;11.07;4.68;;;9.20;99.90;;;;;;4970853;28;20672;-65
2023/04/16 03:25:17;;;;;;;14.38;6.40;;;9.20;99.90;;;;;;4973419;28;20047;-65
2023/04/16 03:27:43;;;;;;;10.07;5.35;;;9.10;99.90;;;;;;4970915;28;20495;-66
2023/04/16 03:30:13;;;;;;;13.20;6.32;;;9.10;99.90;;;;;;4972788;28;20034;-66
2023/04/16 03:32:39;;;;;;;13.10;4.93;;;9.10;99.90;;;;;;4969708;28;20391;-65
2023/04/16 03:35:07;;;;;;;9.68;4.78;;;9.20;99.90;;;;;;4972461;28;20085;-65
2023/04/16 03:37:33;;;;;;;12.13;5.55;;;9.10;99.90;;;;;;4971350;28;20058;-65
2023/04/16 03:39:59;;;;;;;10.95;5.07;;;9.20;99.90;;;;;;4971585;28;20030;-64
2023/04/16 03:42:25;;;;;;;13.18;5.70;;;9.20;99.90;;;;;;4972114;28;20046;-65
2023/04/16 03:44:52;;;;;;;14.15;5.63;;;9.10;99.90;;;;;;4970626;28;20019;-65
2023/04/16 03:47:19;;;;;;;11.43;5.20;;;9.10;99.90;;;;;;4971718;28;20114;-66
2023/04/16 03:49:45;;;;;;;12.40;6.07;;;9.10;99.90;;;;;;4965802;28;20046;-66
2023/04/16 03:52:11;;;;;;;11.73;6.05;;;9.10;99.90;;;;;;4971516;28;20035;-66
2023/04/16 03:54:36;;;;;;;11.18;5.18;;;9.20;99.90;;;;;;4970126;28;20034;-66
2023/04/16 03:57:02;;;;;;;14.25;5.32;;;9.10;99.90;;;;;;4971952;28;20058;-65
2023/04/16 03:59:28;;;;;;;11.02;5.38;;;9.10;99.90;;;;;;4969492;28;20031;-65
2023/04/16 04:01:53;;;;;;;21.55;8.25;;;9.10;99.90;;;;;;4972591;28;20542;-65
2023/04/16 04:04:20;;;;;;;12.98;5.22;;;9.10;99.90;;;;;;4966858;28;20026;-66
2023/04/16 04:06:46;;;;;;;9.75;4.57;;;9.20;99.90;;;;;;4969526;28;20030;-65
2023/04/16 04:09:13;;;;;;;10.07;4.80;;;9.20;99.90;;;;;;4969335;28;20077;-65
2023/04/16 04:11:39;;;;;;;14.70;5.60;;;9.20;99.90;;;;;;4968677;28;20034;-65
2023/04/16 04:14:05;;;;;;;11.75;5.35;;;9.20;99.90;;;;;;4971375;28;20042;-66
2023/04/16 04:16:31;;;;;;;13.07;6.93;;;9.20;99.90;;;;;;4986363;28;20031;-66
2023/04/16 04:18:58;;;;;;;12.77;5.63;;;9.20;99.90;;;;;;4970866;28;20037;-64
2023/04/16 04:21:28;;;;;;;10.07;5.38;;;9.20;99.90;;;;;;4949839;28;20043;-65
2023/04/16 04:23:54;;;;;;;9.90;5.10;;;9.20;99.90;;;;;;4972153;28;20106;-65
2023/04/16 04:26:20;;;;;;;12.98;5.57;;;9.20;99.90;;;;;;4966640;28;20106;-65
2023/04/16 04:28:46;;;;;;;13.85;5.13;;;9.20;99.90;;;;;;4970690;28;20046;-65
2023/04/16 04:31:13;;;;;;;10.40;5.05;;;9.20;99.90;;;;;;4964799;28;20467;-66
2023/04/16 04:33:38;;;;;;;12.98;6.05;;;9.20;99.90;;;;;;4971963;28;20034;-65
2023/04/16 04:36:05;;;;;;;14.63;5.53;;;9.10;99.90;;;;;;4969530;28;20034;-65
2023/04/16 04:38:31;;;;;;;7.40;3.75;;;9.20;99.90;;;;;;4971872;28;20039;-64
2023/04/16 04:40:56;;;;;;;12.88;5.28;;;9.20;99.90;;;;;;4966031;28;20039;-65
2023/04/16 04:43:22;;;;;;;8.43;3.72;;;9.20;99.90;;;;;;4972070;28;20027;-65
2023/04/16 04:45:48;;;;;;;12.88;5.15;;;9.20;99.90;;;;;;4966454;28;20034;-66
2023/04/16 04:48:15;;;;;;;8.55;4.35;;;9.20;99.90;;;;;;4972074;28;20056;-66
2023/04/16 04:50:41;;;;;;;9.15;5.20;;;9.20;99.90;;;;;;4964608;28;20464;-66
2023/04/16 04:53:10;;;;;;;12.40;4.35;;;9.30;99.90;;;;;;4963899;28;20405;-66
2023/04/16 04:55:37;;;;;;;10.20;5.10;;;9.30;99.90;;;;;;4964936;28;20034;-65
2023/04/16 04:58:07;;;;;;;9.90;4.05;;;9.30;99.90;;;;;;4971824;28;20035;-65
2023/04/16 05:00:35;;;;;;;9.77;4.45;;;9.20;99.90;;;;;;4964635;28;20109;-66
2023/04/16 05:03:10;;;;;;;7.88;3.63;;;9.30;99.90;;;;;;4970444;28;20047;-65
2023/04/16 05:05:35;;;;;;;10.48;4.35;;;9.30;99.90;;;;;;4969423;28;20035;-66
2023/04/16 05:08:01;;;;;;;11.43;4.85;;;9.30;99.90;;;;;;4971732;28;20108;-66
2023/04/16 05:10:27;;;;;;;11.70;5.57;;;9.30;99.90;;;;;;4969396;28;20414;-65
2023/04/16 05:12:53;;;;;;;10.93;4.47;;;9.40;99.90;;;;;;4975698;28;20034;-66
2023/04/16 05:15:18;;;;;;;10.00;4.68;;;9.40;99.90;;;;;;4974096;28;20157;-66
2023/04/16 05:17:44;;;;;;;9.15;4.38;;;9.40;99.90;;;;;;4975752;28;20026;-65
2023/04/16 05:20:10;;;;;;;7.50;4.43;;;9.40;99.90;;;;;;4969228;28;20122;-66
2023/04/16 05:22:36;;;;;;;9.18;4.47;;;9.40;99.90;;;;;;4975278;28;20039;-66
2023/04/16 05:25:02;;;;;;;12.05;3.97;;;9.50;99.90;;;;;;4973055;28;20035;-66
2023/04/16 05:27:28;;;;;;;11.20;4.30;;;9.40;99.90;;;;;;4974143;28;20050;-66
2023/04/16 05:29:54;;;;;;;11.55;4.22;;;9.40;99.90;;;;;;4969560;28;20074;-65
2023/04/16 05:32:20;;;;;;;8.43;3.60;;;9.40;99.90;;;;;;4975461;28;20026;-65
2023/04/16 05:34:46;;;;;;;7.70;3.72;;;9.40;99.90;;;;;;4969522;28;20396;-65
2023/04/16 05:37:11;;;;;;;9.65;3.30;;;9.50;99.90;;;;;;4975231;28;20035;-66
2023/04/16 05:39:37;;;;;;;6.80;2.78;;;9.50;99.90;;;;;;4969977;28;20062;-66
2023/04/16 05:42:03;;;;;;;5.95;3.05;;;9.50;99.90;;;;;;4974472;28;20023;-66
2023/04/16 05:44:28;;;;;;;9.82;3.70;;;9.60;99.90;;;;;;4970960;28;20028;-66
2023/04/16 05:46:54;;;;;;;9.65;3.90;;;9.60;99.90;;;;;;4973502;28;20027;-66
2023/04/16 05:49:21;;;;;;;9.10;3.80;;;9.60;99.90;;;;;;4972127;28;20546;-66
2023/04/16 05:51:49;;;;;;;8.40;3.75;;;9.70;99.90;;;;;;4972116;28;20503;-67
2023/04/16 05:54:15;;;;;;;7.22;3.22;;;9.60;99.90;;;;;;4971805;28;20034;-67
2023/04/16 05:56:41;;;;;;;6.32;3.25;;;9.70;99.90;;;;;;4971510;28;20042;-68
2023/04/16 05:59:07;;;;;;;12.88;3.30;;;9.60;99.90;;;;;;4954987;28;20118;-69
2023/04/16 06:01:32;;;;;;;5.68;3.42;;;9.60;99.90;;;;;;4984817;28;20040;-68
2023/04/16 06:03:58;;;;;;;8.55;3.38;;;9.60;99.90;;;;;;4974308;28;20042;-65
2023/04/16 06:06:26;;;;;;;10.23;3.85;;;9.70;99.90;;;;;;4969363;28;20391;-68
2023/04/16 06:08:52;;;;;;;11.43;4.43;;;9.60;99.90;;;;;;4974639;28;20027;-68
2023/04/16 06:11:18;;;;;;;7.43;3.50;;;9.60;99.90;;;;;;4968674;28;20039;-69
2023/04/16 06:13:43;;;;;;;9.23;3.97;;;9.60;99.90;;;;;;4973393;28;20039;-69
2023/04/16 06:16:09;;;;;;;7.78;3.83;;;9.60;99.90;;;;;;4967817;28;20561;-69
2023/04/16 06:18:35;;;;;;;10.25;3.67;;;9.60;99.90;;;;;;4965637;28;20552;-68
2023/04/16 06:21:02;;;;;;;7.43;3.55;;;9.60;99.90;;;;;;4955553;28;20122;-68
2023/04/16 06:23:27;;;;;;;12.13;4.13;;;9.60;99.90;;;;;;4983768;28;20030;-68
2023/04/16 06:25:54;;;;;;;8.30;3.80;;;9.60;99.90;;;;;;4974574;28;20035;-69
2023/04/16 06:28:20;;;;;;;9.23;3.85;;;9.60;99.90;;;;;;4973101;28;20114;-68
2023/04/16 06:30:46;;;;;;;10.07;3.90;;;9.60;99.90;;;;;;4973848;28;20043;-68
2023/04/16 06:33:12;;;;;;;9.88;4.55;;;9.60;99.90;;;;;;4967471;28;20183;-68
2023/04/16 06:35:38;;;;;;;9.95;4.40;;;9.50;99.90;;;;;;4974276;28;20041;-69
2023/04/16 06:38:04;;;;;;;6.90;3.50;;;9.50;99.90;;;;;;4969142;28;20051;-67
2023/04/16 06:40:29;;;;;;;11.30;4.30;;;9.50;99.90;;;;;;4968989;28;20027;-67
2023/04/16 06:42:55;;;;;;;10.57;4.43;;;9.50;99.90;;;;;;4964292;28;20035;-67
2023/04/16 06:45:21;;;;;;;8.85;4.57;;;9.50;99.90;;;;;;4969317;28;20031;-68
2023/04/16 06:47:47;;;;;;;13.27;5.32;;;9.50;99.90;;;;;;4959481;28;20069;-65
2023/04/16 06:50:12;;;;;;;9.38;4.03;;;9.50;99.90;;;;;;4973600;28;20034;-65
2023/04/16 06:52:38;;;;;;;9.10;3.75;;;9.40;99.90;;;;;;4966946;28;20039;-65
2023/04/16 06:55:07;;;;;;;12.50;4.05;;;9.40;99.90;;;;;;4972542;28;20031;-65
2023/04/16 06:57:32;;;;;;;13.95;4.63;;;9.40;99.90;;;;;;4966935;28;20026;-64
2023/04/16 06:59:58;;;;;;;12.20;4.45;;;9.40;99.90;;;;;;4973194;28;20038;-65
2023/04/16 07:02:24;;;;;;;12.65;5.50;;;9.40;99.90;;;;;;4966978;28;20162;-66
2023/04/16 07:04:51;;;;;;;13.35;5.50;;;9.40;99.90;;;;;;4971525;28;20031;-65
2023/04/16 07:07:17;;;;;;;13.10;5.32;;;9.50;99.90;;;;;;4973566;28;20030;-66
2023/04/16 07:09:43;;;;;;;12.10;4.32;;;9.50;99.90;;;;;;4971616;28;20122;-65
2023/04/16 07:12:10;;;;;;;11.57;4.38;;;9.50;99.90;;;;;;4973621;28;20118;-64
2023/04/16 07:14:35;;;;;;;12.60;4.97;;;9.50;99.90;;;;;;4970352;28;20481;-64
2023/04/16 07:17:01;;;;;;;9.48;5.10;;;9.60;99.90;;;;;;4973276;28;20106;-65
2023/04/16 07:19:31;;;;;;;10.45;5.07;;;9.70;99.90;;;;;;4970649;28;20109;-64
2023/04/16 07:21:58;;;;;;;11.93;5.03;;;9.80;99.90;;;;;;4973044;28;20042;-65
2023/04/16 07:24:24;;;;;;;11.25;5.05;;;9.80;99.90;;;;;;4969952;28;20078;-65
2023/04/16 07:26:50;;;;;;;10.65;4.88;;;9.90;99.90;;;;;;4973102;28;20023;-65
2023/04/16 07:29:15;;;;;;;12.05;5.45;;;9.90;99.90;;;;;;4971566;28;20042;-65
2023/04/16 07:31:41;;;;;;;12.60;4.97;;;10.00;99.90;;;;;;4972774;28;20138;-65
2023/04/16 07:34:07;;;;;;;10.18;5.03;;;10.10;99.90;;;;;;4971021;28;20037;-65
2023/04/16 07:36:33;;;;;;;15.90;5.85;;;10.10;99.90;;;;;;4972764;28;20065;-65
2023/04/16 07:38:59;;;;;;;12.43;4.80;;;10.10;99.90;;;;;;4970416;28;20038;-65
2023/04/16 07:41:25;;;;;;;11.18;4.95;;;10.20;99.90;;;;;;4972587;28;20026;-65
2023/04/16 07:43:51;;;;;;;9.70;4.55;;;10.30;99.90;;;;;;4968738;28;20031;-63
2023/04/16 07:46:16;;;;;;;15.52;6.05;;;10.10;99.90;;;;;;4970759;28;20053;-65
2023/04/16 07:48:42;;;;;;;12.98;5.07;;;10.10;99.90;;;;;;4969622;28;20089;-64
2023/04/16 07:51:08;;;;;;;10.82;3.83;;;10.10;99.90;;;;;;4972152;28;20031;-65
2023/04/16 07:53:34;;;;;;;9.80;4.72;;;10.10;99.90;;;;;;4964182;28;20031;-65
2023/04/16 07:56:00;;;;;;;11.63;4.85;;;10.10;99.90;;;;;;4970746;28;20034;-65
2023/04/16 07:58:26;;;;;;;11.02;4.25;;;10.10;99.90;;;;;;4962228;28;20449;-64
2023/04/16 08:00:52;;;;;;;11.38;5.22;;;10.10;99.90;;;;;;4971797;28;20035;-64
2023/04/16 08:03:18;;;;;;;10.57;3.70;;;10.10;99.90;;;;;;4954104;28;20089;-64
2023/04/16 08:05:44;;;;;;;7.00;3.72;;;10.20;99.90;;;;;;4970406;28;20758;-64
2023/04/16 08:08:09;;;;;;;10.27;4.13;;;10.10;99.90;;;;;;4970382;28;20132;-64
2023/04/16 08:10:35;;;;;;;11.10;4.40;;;10.20;99.90;;;;;;4971346;28;20035;-64
2023/04/16 08:13:01;;;;;;;10.77;4.22;;;10.20;99.90;;;;;;4971177;28;20086;-65
2023/04/16 08:15:27;;;;;;;13.98;5.57;;;10.30;99.90;;;;;;4970385;28;20027;-65
2023/04/16 08:17:53;;;;;;;14.18;6.18;;;10.30;99.90;;;;;;4962664;28;20039;-65
2023/04/16 08:20:18;;;;;;;9.70;4.10;;;10.30;99.90;;;;;;4971379;28;20027;-66
2023/04/16 08:22:45;;;;;;;8.35;4.43;;;10.40;99.90;;;;;;4963665;28;20038;-65
2023/04/16 08:25:11;;;;;;;8.02;4.25;;;10.40;99.90;;;;;;4979059;28;20031;-65
2023/04/16 08:27:37;;;;;;;11.02;4.82;;;10.40;99.90;;;;;;4973819;28;20089;-64
2023/04/16 08:30:04;;;;;;;10.35;4.03;;;10.30;99.90;;;;;;4985496;28;20398;-64
2023/04/16 08:32:30;;;;;;;9.85;4.22;;;10.40;99.90;;;;;;4965103;28;20042;-64
2023/04/16 08:34:56;;;;;;;11.27;4.47;;;10.40;99.90;;;;;;4970160;28;20376;-64
2023/04/16 08:37:22;;;;;;;11.40;4.10;;;10.30;99.90;;;;;;4967534;28;20039;-64
2023/04/16 08:39:48;;;;;;;9.52;4.10;;;10.30;99.90;;;;;;4970448;28;20031;-64
2023/04/16 08:42:31;;;;;;;9.50;3.53;;;10.20;99.90;;;;;;4968481;28;20023;-63
2023/04/16 08:45:20;;;;;;;9.27;4.55;;;10.20;99.90;;;;;;4968128;28;20517;-64
2023/04/16 08:47:50;;;;;;;9.95;4.47;;;10.30;99.90;;;;;;4959169;28;20047;-64
2023/04/16 08:50:25;;;;;;;8.23;3.22;;;10.30;99.90;;;;;;4969727;28;20666;-64
2023/04/16 08:52:53;;;;;;;10.27;3.85;;;10.20;99.90;;;;;;4962983;28;20507;-65
2023/04/16 08:55:24;;;;;;;10.23;3.90;;;10.20;99.90;;;;;;4969709;28;20027;-65
2023/04/16 08:57:53;;;;;;;;;;;10.10;99.90;;;;;;4963639;28;20054;-65
2023/04/16 09:00:20;;;;;;;9.15;3.28;;;10.10;99.90;;;;;;4970079;28;20313;-65
2023/04/16 09:02:45;;;;;;;8.40;5.05;;;10.10;99.90;;;;;;4963225;28;20167;-65
2023/04/16 09:05:24;;;;;;;7.40;4.13;;;10.10;99.90;;;;;;4971296;28;20754;-65
2023/04/16 09:07:53;;;;;;;7.75;3.42;;;10.10;99.90;;;;;;4968134;28;20043;-65
2023/04/16 09:10:19;;;;;;;13.00;4.45;;;10.10;99.90;;;;;;4969509;28;20437;-64
2023/04/16 09:15:20;;;;;;;8.70;3.65;;;10.00;99.90;;;;;;4966219;28;20047;-64
2023/04/16 09:17:45;;;;;;;6.90;3.33;;;9.90;99.90;;;;;;4970662;28;20126;-63
2023/04/16 09:20:11;;;;;;;8.65;4.13;;;9.80;99.90;;;;;;4961037;28;20189;-63
2023/04/16 09:22:41;;;;;;;12.02;4.65;;;9.80;99.90;;;;;;4967743;28;20030;-64
2023/04/16 09:25:07;;;;;;;7.25;3.75;;;9.80;99.90;;;;;;4952247;29;20027;-63
2023/04/16 09:27:33;;;;;;;11.45;4.82;;;9.70;99.90;;;;;;4967392;28;20030;-63
2023/04/16 09:29:59;;;;;;;11.27;3.58;;;9.70;99.90;;;;;;4969798;28;20039;-63
2023/04/16 09:32:27;;;;;;;11.23;4.55;;;9.60;99.90;;;;;;4966828;28;20042;-63
2023/04/16 09:34:57;;;;;;;7.97;3.63;;;9.60;99.90;;;;;;4971296;28;20035;-62
2023/04/16 09:37:31;;;;;;;16.60;4.53;;;9.70;99.90;;;;;;4968444;28;20509;-64
2023/04/16 09:40:04;;;;;;;9.45;4.35;;;9.70;99.90;;;;;;4971747;28;20122;-64
2023/04/16 09:42:36;;;;;;;7.85;3.85;;;9.70;99.90;;;;;;4970762;28;20158;-64
2023/04/16 09:45:02;;;;;;;8.57;3.97;;;9.70;99.90;;;;;;4969905;28;20113;-63
2023/04/16 09:47:45;;;;;;;10.07;4.05;;;9.80;99.90;;;;;;4968956;28;20031;-62
2023/04/16 09:50:19;;;;;;;18.02;5.13;;;9.80;99.90;;;;;;4950661;28;20038;-63
2023/04/16 09:52:52;;;;;;;12.90;5.82;;;9.80;99.90;;;;;;4970608;28;20023;-63
2023/04/16 09:55:26;;;;;;;11.55;3.42;;;9.80;99.90;;;;;;4954885;28;20046;-63
2023/04/16 09:58:01;;;;;;;9.90;4.20;;;9.90;99.90;;;;;;4971382;28;20049;-65
2023/04/16 10:00:30;;;;;;;9.55;3.95;;;9.80;99.90;;;;;;4973394;28;20031;-63
2023/04/16 10:03:05;;;;;;;8.23;4.18;;;9.80;99.90;;;;;;4973425;28;20035;-63
2023/04/16 10:05:31;;;;;;;15.82;5.85;;;9.90;99.90;;;;;;4973551;28;20027;-63
2023/04/16 10:08:00;;;;;;;9.07;3.65;;;9.80;99.90;;;;;;4973293;28;20049;-63
2023/04/16 10:10:27;;;;;;;12.00;5.20;;;9.80;99.90;;;;;;4977795;28;20035;-63
2023/04/16 10:12:54;;;;;;;9.30;3.92;;;9.80;99.90;;;;;;4972372;28;20536;-63
2023/04/16 10:15:21;;;;;;;11.27;4.57;;;9.80;99.90;;;;;;4974606;28;20067;-63
2023/04/16 10:17:47;;;;;;;8.73;4.28;;;9.80;99.90;;;;;;4971270;28;20114;-63
2023/04/16 10:20:15;;;;;;;9.95;3.97;;;9.70;99.90;;;;;;4972880;28;20042;-63
2023/04/16 10:22:41;;;;;;;11.60;5.57;;;9.80;99.90;;;;;;4970164;28;20027;-63
2023/04/16 10:25:07;;;;;;;15.63;5.65;;;9.80;99.90;;;;;;4973125;28;20037;-63
2023/04/16 10:27:35;;;;;;;11.13;5.10;;;9.80;99.90;;;;;;4970504;28;20050;-63
2023/04/16 10:30:02;;;;;;;9.10;4.28;;;9.90;99.90;;;;;;4972297;28;20026;-63
2023/04/16 10:32:30;;;;;;;13.55;5.20;;;9.90;99.90;;;;;;4954199;28;20492;-63
2023/04/16 10:34:56;;;;;;;15.07;5.50;;;10.00;99.90;;;;;;4974031;28;20505;-63
2023/04/16 10:37:30;;;;;;;11.48;5.32;;;10.00;99.90;;;;;;4969966;28;20390;-63
2023/04/16 10:39:57;;;;;;;8.85;5.15;;;10.00;99.90;;;;;;4972301;28;20410;-64
2023/04/16 10:42:24;;;;;;;8.18;3.97;;;10.00;99.90;;;;;;4974580;28;20031;-64
2023/04/16 10:44:50;;;;;;;10.85;5.18;;;10.00;99.90;;;;;;4973711;28;20067;-64
2023/04/16 10:47:16;;;;;;;12.45;5.43;;;10.10;99.90;;;;;;4971323;28;20113;-63
2023/04/16 10:49:42;;;;;;;12.70;6.45;;;10.10;99.90;;;;;;4973597;28;20043;-63
2023/04/16 10:52:18;;;;;;;12.50;4.32;;;10.20;99.90;;;;;;4971073;28;20031;-62
2023/04/16 10:54:47;;;;;;;11.55;5.72;;;10.30;99.90;;;;;;4972505;28;20034;-63
2023/04/16 10:57:18;;;;;;;14.27;5.57;;;10.30;99.90;;;;;;4970051;28;20026;-63
2023/04/16 10:59:47;;;;;;;11.55;4.90;;;10.30;99.90;;;;;;4971902;28;20039;-63
2023/04/16 11:02:16;;;;;;;12.35;5.60;;;10.30;99.90;;;;;;4969528;28;20035;-63
2023/04/16 11:04:44;;;;;;;11.38;5.68;;;10.30;99.90;;;;;;4973525;28;20132;-64
2023/04/16 11:07:12;;;;;;;10.90;5.90;;;10.30;99.90;;;;;;4969045;28;20097;-63
2023/04/16 11:09:58;;;;;;;15.85;5.65;;;10.40;99.90;;;;;;4952443;28;20050;-64
2023/04/16 11:12:41;;;;;;;12.13;5.28;;;10.40;99.90;;;;;;4966539;28;20510;-64
2023/04/16 11:15:09;;;;;;;13.57;6.13;;;10.40;99.90;;;;;;4952823;28;20050;-63
2023/04/16 11:17:43;;;;;;;11.63;5.25;;;10.50;99.90;;;;;;4970099;28;20491;-64
2023/04/16 11:20:24;;;;;;;14.15;6.00;;;10.60;99.90;;;;;;4953692;28;20043;-64
2023/04/16 11:22:52;;;;;;;13.30;5.85;;;10.70;99.90;;;;;;4971325;28;20037;-63
2023/04/16 11:25:29;;;;;;;21.50;6.53;;;10.70;99.90;;;;;;4971536;28;20489;-63
2023/04/16 11:27:57;;;;;;;15.13;6.15;;;10.70;99.90;;;;;;4970612;28;20023;-64
2023/04/16 11:30:34;;;;;;;8.50;3.92;;;10.70;99.90;;;;;;4971105;28;20121;-64
2023/04/16 11:33:11;;;;;;;9.98;4.25;;;10.60;99.90;;;;;;4972038;28;20054;-63
2023/04/16 11:35:40;;;;;;;16.38;6.25;;;10.60;99.90;;;;;;4969301;28;20030;-64
2023/04/16 11:38:06;;;;;;;13.98;5.38;;;10.50;99.90;;;;;;4971113;28;20057;-63
2023/04/16 11:40:32;;;;;;;19.52;5.30;;;10.60;99.90;;;;;;4971884;28;20034;-63
2023/04/16 11:43:14;;;;;;;13.30;5.35;;;10.60;99.90;;;;;;4972603;28;20037;-64
2023/04/16 11:45:55;;;;;;;;;;;10.60;99.90;;;;;;4969108;28;20042;-64
2023/04/16 11:48:21;;;;;;;9.60;4.88;;;10.70;99.90;;;;;;4965454;28;19910;-63
2023/04/16 11:50:57;;;;;;;10.57;5.22;;;10.70;99.90;;;;;;4970028;28;20099;-64
2023/04/16 11:53:23;;;;;;;16.50;6.35;;;10.80;99.90;;;;;;4972389;28;20521;-63
2023/04/16 11:55:49;;;;;;;13.70;5.40;;;10.80;99.90;;;;;;4970107;28;20043;-64
2023/04/16 11:58:15;;;;;;;11.43;5.38;;;10.80;99.90;;;;;;4972858;28;20086;-64
2023/04/16 12:00:41;;;;;;;15.85;5.70;;;10.90;99.90;;;;;;4968576;28;20495;-64
2023/04/16 12:03:07;;;;;;;14.13;5.68;;;11.10;99.90;;;;;;4964356;28;20098;-64
2023/04/16 12:05:37;;;;;;;14.43;5.30;;;11.10;99.90;;;;;;4970957;28;20050;-63
2023/04/16 12:08:08;;;;;;;11.80;6.13;;;11.20;99.90;;;;;;4971844;28;20030;-63
2023/04/16 12:10:36;;;;;;;;;;;11.30;99.90;;;;;;4969213;28;20042;-64
2023/04/16 12:13:14;;;;;;;13.23;6.07;;;11.20;99.90;;;;;;4969857;28;19922;-63
2023/04/16 12:15:57;;;;;;;10.93;5.15;;;11.30;99.90;;;;;;4970156;28;20086;-63
2023/04/16 12:18:25;;;;;;;15.57;6.30;;;11.40;99.90;;;;;;4965489;28;20391;-63
2023/04/16 12:20:52;;;;;;;10.95;5.30;;;11.30;99.90;;;;;;4968180;28;20043;-64
2023/04/16 12:23:32;;;;;;;13.00;5.22;;;11.40;99.90;;;;;;4967528;28;20037;-64
2023/04/16 12:26:09;;;;;;;13.98;5.35;;;11.40;99.90;;;;;;4970705;28;20081;-64
2023/04/16 12:28:37;;;;;;;14.07;5.45;;;11.40;99.90;;;;;;4967031;28;20539;-64
2023/04/16 12:31:04;;;;;;;14.13;5.65;;;11.40;99.90;;;;;;4969674;28;20023;-64
2023/04/16 12:33:30;;;;;;;10.80;4.85;;;11.40;99.90;;;;;;4965568;28;20050;-64
2023/04/16 12:35:56;;;;;;;12.15;4.93;;;11.30;99.90;;;;;;4969067;28;20026;-64
2023/04/16 12:38:22;;;;;;;12.95;5.20;;;11.30;99.90;;;;;;4967660;28;20038;-64
2023/04/16 12:40:48;;;;;;;13.07;4.90;;;11.20;99.90;;;;;;4967265;28;20051;-64
2023/04/16 12:43:14;;;;;;;11.25;5.47;;;11.30;99.90;;;;;;4968759;28;20030;-62
2023/04/16 12:45:40;;;;;;;15.73;6.20;;;11.40;99.90;;;;;;4968054;28;20069;-62
2023/04/16 12:48:06;;;;;;;13.27;5.53;;;11.40;99.90;;;;;;4969877;28;20046;-64
2023/04/16 12:50:32;;;;;;;12.38;4.78;;;11.40;99.90;;;;;;4967090;28;20034;-64